Saint Louis, Missouri
Current Conditions -  °F | °C
As of 3:53 AM on Thursday 18 Dec 2014 (Local Time) from KCPS Reporting Station
Overcast Overcast  
Wind Chill: 26°   Ceiling: 7000
Heat Index: 31°   Visibility: 10mi
Dew Point: 25°   Wind: 5mph
Humidity: 79%   Direction: 80°E
Pressure: 30.29"   Gusts: NA
Location:  38.63°N, 90.24°W
Report Text: KCPS 180953Z AUTO 08004KT 10SM SCT013 OVC070 M01/M04 A3029 RMK AO2 SLP260 T10061039 TSNO
Loading
Personal Weather Stations






























Interactive Weather Map New forecast layout! Learn more

10-Day Weather Forecast

Advertisements
Track Severe Weather on mobile